Time;durP1;ratioP1;P1;durP2;ratioP2;P2;SDS_P1;SDS_P2;PMS_P1;PMS_P2;Temp;Humidity;BMP_temperature;BMP_pressure;BME280_temperature;BME280_humidity;BME280_pressure;Samples;Min_cycle;Max_cycle;Signal;HPM_P1;HPM_P2
2022/01/05 00:00:08;;;;;;;0.60;0.60;;;;;;;6.36;67.24;99163.53;680920;29;22387;-69
2022/01/05 00:00:29;;;;;;;0.60;0.60;;;;;;;6.33;67.32;99162.06;679270;29;69694;-69
2022/01/05 00:00:51;;;;;;;0.55;0.55;;;;;;;6.32;67.06;99157.72;681564;28;22250;-69
2022/01/05 00:01:12;;;;;;;0.50;0.50;;;;;;;6.32;67.17;99149.69;682450;28;45261;-69
2022/01/05 00:01:33;;;;;;;0.60;0.60;;;;;;;6.30;67.30;99152.56;683643;28;22412;-69
2022/01/05 00:01:54;;;;;;;0.75;0.75;;;;;;;6.32;67.12;99158.56;683643;28;22417;-69
2022/01/05 00:02:16;;;;;;;0.70;0.70;;;;;;;6.31;67.04;99158.75;683137;28;23257;-69
2022/01/05 00:02:39;;;;;;;0.70;0.70;;;;;;;6.29;67.25;99158.94;682606;28;46414;-69
2022/01/05 00:03:00;;;;;;;0.70;0.70;;;;;;;6.27;67.17;99160.13;682014;28;67294;-69
2022/01/05 00:03:21;;;;;;;0.70;0.70;;;;;;;6.27;67.03;99157.44;683274;28;21553;-69
2022/01/05 00:03:42;;;;;;;0.80;0.80;;;;;;;6.26;67.13;99161.97;683267;28;22460;-69
2022/01/05 00:04:05;;;;;;;1.00;1.00;;;;;;;6.27;67.30;99162.81;682500;28;21340;-69
2022/01/05 00:04:26;;;;;;;0.85;0.85;;;;;;;6.25;67.09;99154.13;682508;28;46266;-69
2022/01/05 00:04:47;;;;;;;0.70;0.70;;;;;;;6.23;67.32;99157.00;683309;28;22857;-69
2022/01/05 00:05:10;;;;;;;0.73;0.73;;;;;;;6.22;67.15;99158.03;683772;28;22537;-69
2022/01/05 00:05:31;;;;;;;0.70;0.70;;;;;;;6.22;67.13;99165.22;681713;28;69514;-69
2022/01/05 00:05:52;;;;;;;0.93;0.93;;;;;;;6.21;67.11;99166.25;683537;28;21537;-69
2022/01/05 00:06:14;;;;;;;1.00;1.00;;;;;;;6.21;67.37;99163.59;683359;28;18006;-69
2022/01/05 00:06:36;;;;;;;1.10;1.10;;;;;;;6.19;67.09;99166.44;682481;28;45251;-69
2022/01/05 00:06:57;;;;;;;1.00;1.00;;;;;;;6.17;67.28;99167.63;681661;28;69398;-69
2022/01/05 00:07:19;;;;;;;0.77;0.77;;;;;;;6.18;67.49;99169.31;683249;28;22405;-69
2022/01/05 00:07:40;;;;;;;0.82;0.82;;;;;;;6.14;67.34;99158.13;682746;28;44414;-69
2022/01/05 00:08:01;;;;;;;1.30;1.30;;;;;;;6.17;67.55;99175.69;683176;28;21537;-69
2022/01/05 00:08:25;;;;;;;1.00;1.00;;;;;;;6.15;67.38;99164.31;683268;28;22412;-69
2022/01/05 00:08:50;;;;;;;0.70;0.70;;;;;;;6.18;67.43;99166.63;681779;28;69268;-69
2022/01/05 00:09:11;;;;;;;0.80;0.80;;;;;;;6.16;67.42;99166.81;678954;28;115291;-69
2022/01/05 00:09:32;;;;;;;0.85;0.85;;;;;;;6.15;67.37;99172.38;683444;28;23454;-69
2022/01/05 00:09:54;;;;;;;1.00;1.00;;;;;;;6.16;67.55;99171.34;682440;28;45244;-69
2022/01/05 00:10:15;;;;;;;0.90;0.90;;;;;;;6.11;67.42;99171.88;682259;28;46319;-69
2022/01/05 00:10:37;;;;;;;0.90;0.90;;;;;;;6.09;67.55;99160.53;682452;28;44160;-69
2022/01/05 00:10:58;;;;;;;1.05;1.05;;;;;;;6.11;67.44;99166.53;682449;28;46324;-69
2022/01/05 00:11:20;;;;;;;0.82;0.82;;;;;;;6.12;67.53;99165.53;683233;28;22478;-68
2022/01/05 00:11:42;;;;;;;0.73;0.73;;;;;;;6.11;67.49;99166.53;682326;28;46324;-69
2022/01/05 00:12:03;;;;;;;0.90;0.90;;;;;;;6.10;67.49;99162.22;683567;28;23250;-69
2022/01/05 00:12:24;;;;;;;1.00;1.00;;;;;;;6.10;67.68;99162.22;682728;28;46308;-69
2022/01/05 00:12:46;;;;;;;0.80;0.80;;;;;;;6.11;67.58;99169.22;683274;28;22400;-69
2022/01/05 00:13:08;;;;;;;0.90;0.90;;;;;;;6.11;67.74;99162.03;684762;28;46339;-69
2022/01/05 00:13:29;;;;;;;0.93;0.93;;;;;;;6.10;67.58;99162.22;686074;28;22416;-69
2022/01/05 00:13:50;;;;;;;0.95;0.95;;;;;;;6.11;67.63;99163.84;685659;28;23476;-69
2022/01/05 00:14:12;;;;;;;1.00;1.00;;;;;;;6.11;67.82;99169.22;685047;28;21556;-68
2022/01/05 00:14:33;;;;;;;0.90;0.90;;;;;;;6.07;67.54;99162.56;685551;28;45275;-68
2022/01/05 00:14:54;;;;;;;0.77;0.77;;;;;;;6.06;67.66;99169.75;685872;28;22392;-69
2022/01/05 00:15:16;;;;;;;0.88;0.88;;;;;;;6.04;67.70;99161.09;683486;28;22159;-69
2022/01/05 00:15:38;;;;;;;0.77;0.77;;;;;;;6.05;67.67;99168.13;682411;28;46321;-69
2022/01/05 00:15:59;;;;;;;0.80;0.80;;;;;;;6.04;67.71;99160.28;682520;28;45296;-69
2022/01/05 00:16:20;;;;;;;0.95;0.95;;;;;;;6.04;67.68;99163.78;683184;28;22406;-69
2022/01/05 00:16:41;;;;;;;0.93;0.93;;;;;;;6.03;67.95;99167.47;683503;28;23356;-69
2022/01/05 00:17:03;;;;;;;0.90;0.90;;;;;;;6.01;67.92;99161.47;682352;28;46331;-69
2022/01/05 00:17:25;;;;;;;0.80;0.80;;;;;;;6.00;67.86;99161.66;687327;28;45278;-69
2022/01/05 00:17:46;;;;;;;0.88;0.88;;;;;;;6.01;67.99;99166.81;688296;28;21343;-69
2022/01/05 00:18:07;;;;;;;0.90;0.90;;;;;;;6.01;67.74;99163.31;688916;28;22375;-69
2022/01/05 00:18:29;;;;;;;0.80;0.80;;;;;;;6.00;67.86;99159.78;688562;28;23499;-69
2022/01/05 00:18:50;;;;;;;0.75;0.75;;;;;;;6.00;68.07;99165.16;687735;28;44389;-69
2022/01/05 00:19:11;;;;;;;0.90;0.90;;;;;;;5.99;67.82;99160.81;686452;28;21524;-69
2022/01/05 00:19:34;;;;;;;0.75;0.75;;;;;;;5.97;67.79;99159.34;683343;28;22376;-69
2022/01/05 00:19:55;;;;;;;0.88;0.88;;;;;;;5.95;67.87;99160.31;681756;28;68528;-69
2022/01/05 00:20:16;;;;;;;1.00;1.00;;;;;;;5.95;68.03;99159.50;683162;28;23472;-69
2022/01/05 00:20:38;;;;;;;1.00;1.00;;;;;;;5.96;68.22;99163.84;682627;28;45235;-69
2022/01/05 00:21:01;;;;;;;0.90;0.90;;;;;;;5.94;68.05;99161.34;682401;28;46346;-69
2022/01/05 00:21:22;;;;;;;0.70;0.70;;;;;;;5.95;68.04;99162.16;681534;28;67515;-69
2022/01/05 00:21:45;;;;;;;0.70;0.70;;;;;;;5.98;68.30;99163.69;682601;28;45337;-69
2022/01/05 00:22:06;;;;;;;0.88;0.88;;;;;;;5.98;68.13;99169.88;682511;28;47017;-69
2022/01/05 00:22:28;;;;;;;0.90;0.90;;;;;;;5.96;68.11;99153.13;683437;28;22209;-69
2022/01/05 00:22:49;;;;;;;0.90;0.90;;;;;;;5.97;68.01;99156.66;682376;28;44170;-69
2022/01/05 00:23:10;;;;;;;0.90;0.90;;;;;;;5.96;68.23;99166.53;683047;28;22424;-69
2022/01/05 00:23:31;;;;;;;0.82;0.82;;;;;;;5.97;68.30;99162.84;683621;28;22205;-69
2022/01/05 00:23:52;;;;;;;0.80;0.80;;;;;;;5.95;68.25;99163.00;684427;28;22398;-69
2022/01/05 00:24:14;;;;;;;0.98;0.98;;;;;;;5.97;68.27;99164.69;688172;28;22939;-69
2022/01/05 00:24:36;;;;;;;1.10;1.10;;;;;;;5.97;68.16;99162.84;687963;28;45059;-69
2022/01/05 00:24:57;;;;;;;0.90;0.90;;;;;;;5.97;68.33;99170.06;687624;28;46137;-69
2022/01/05 00:25:18;;;;;;;0.90;0.90;;;;;;;5.97;68.08;99157.47;688322;28;22361;-69
2022/01/05 00:25:39;;;;;;;0.80;0.80;;;;;;;5.97;68.19;99162.03;688134;28;46488;-69
2022/01/05 00:26:04;;;;;;;0.70;0.70;;;;;;;5.98;68.15;99161.84;687346;28;22313;-69
2022/01/05 00:26:27;;;;;;;1.00;1.00;;;;;;;5.97;68.04;99156.66;680229;28;108934;-69
2022/01/05 00:26:48;;;;;;;1.00;1.00;;;;;;;6.00;68.33;99158.97;681231;28;92518;-69
2022/01/05 00:27:10;;;;;;;1.00;1.00;;;;;;;5.95;67.98;99154.94;684969;28;44544;-69
2022/01/05 00:27:31;;;;;;;0.90;0.90;;;;;;;5.95;68.08;99160.31;684116;28;69655;-69
2022/01/05 00:27:52;;;;;;;0.98;0.98;;;;;;;5.94;68.00;99157.81;684776;28;46417;-69
2022/01/05 00:28:16;;;;;;;0.90;0.90;;;;;;;5.94;68.12;99153.31;684025;28;67274;-69
2022/01/05 00:28:38;;;;;;;1.02;1.02;;;;;;;5.93;68.14;99156.19;684915;28;45026;-69
2022/01/05 00:28:59;;;;;;;1.00;1.00;;;;;;;5.94;68.33;99152.47;683810;28;22380;-69
2022/01/05 00:29:20;;;;;;;0.82;0.82;;;;;;;5.96;68.00;99158.50;683308;28;21521;-69
2022/01/05 00:29:42;;;;;;;0.50;0.50;;;;;;;5.95;68.19;99154.94;683265;28;22419;-69
2022/01/05 00:30:11;;;;;;;0.50;0.50;;;;;;;5.95;68.01;99154.13;682690;28;46320;-69
2022/01/05 00:31:33;;;;;;;0.70;0.70;;;;;;;5.93;67.98;99145.47;682037;28;60510;-70
2022/01/05 00:31:55;;;;;;;0.70;0.70;;;;;;;5.97;67.96;99159.34;668417;29;136056;-69
2022/01/05 00:32:16;;;;;;;0.60;0.60;;;;;;;5.95;68.17;99162.16;674587;29;22424;-69
2022/01/05 00:32:37;;;;;;;0.70;0.70;;;;;;;5.94;68.01;99158.66;674999;29;22396;-69
2022/01/05 00:32:59;;;;;;;0.65;0.65;;;;;;;5.95;68.25;99160.31;674945;29;23324;-69
2022/01/05 00:33:26;;;;;;;0.60;0.60;;;;;;;5.94;67.98;99166.72;674190;29;46357;-69
2022/01/05 00:33:48;;;;;;;0.50;0.50;;;;;;;5.95;68.09;99162.16;680672;28;138449;-69
2022/01/05 00:34:10;;;;;;;0.50;0.50;;;;;;;5.94;68.11;99158.66;682577;28;23445;-69
2022/01/05 00:34:31;;;;;;;0.60;0.60;;;;;;;5.95;67.96;99160.31;682017;28;46317;-69
2022/01/05 00:34:52;;;;;;;0.70;0.70;;;;;;;5.95;67.95;99167.53;683154;28;22264;-69
2022/01/05 00:35:13;;;;;;;0.60;0.60;;;;;;;5.95;67.77;99175.56;682913;28;21524;-69
2022/01/05 00:35:35;;;;;;;0.60;0.60;;;;;;;5.91;67.90;99169.75;683173;28;22396;-69
2022/01/05 00:35:57;;;;;;;0.60;0.60;;;;;;;5.92;67.89;99175.94;681462;28;69317;-69
2022/01/05 00:36:18;;;;;;;0.43;0.43;;;;;;;5.91;67.79;99171.63;682962;28;23518;-69
2022/01/05 00:36:39;;;;;;;0.50;0.50;;;;;;;5.92;67.84;99175.94;683463;28;21355;-69
2022/01/05 00:37:03;;;;;;;0.60;0.60;;;;;;;5.91;68.03;99180.47;683038;28;21565;-69
2022/01/05 00:37:24;;;;;;;0.50;0.50;;;;;;;5.91;68.10;99182.34;680882;28;92317;-69
2022/01/05 00:37:45;;;;;;;0.50;0.50;;;;;;;5.91;67.96;99177.81;683157;28;15474;-69
2022/01/05 00:38:06;;;;;;;0.50;0.50;;;;;;;5.91;67.97;99179.66;683019;28;23471;-69
2022/01/05 00:38:28;;;;;;;0.40;0.40;;;;;;;5.91;68.06;99180.47;683771;28;22233;-69
2022/01/05 00:38:49;;;;;;;0.60;0.60;;;;;;;5.90;68.19;99176.13;682520;28;46264;-69
2022/01/05 00:39:10;;;;;;;0.60;0.60;;;;;;;5.90;67.92;99184.16;682336;28;22247;-69
2022/01/05 00:39:31;;;;;;;0.50;0.50;;;;;;;5.91;68.03;99182.34;683290;28;22525;-69
2022/01/05 00:39:54;;;;;;;0.50;0.50;;;;;;;5.90;68.00;99183.34;682886;28;22399;-69
2022/01/05 00:40:15;;;;;;;0.40;0.40;;;;;;;5.87;68.02;99184.53;681778;28;68488;-69
2022/01/05 00:40:44;;;;;;;0.50;0.50;;;;;;;5.89;67.95;99187.03;682057;28;60481;-69
2022/01/05 00:41:05;;;;;;;0.60;0.60;;;;;;;5.88;68.05;99185.38;685654;28;23491;-69
2022/01/05 00:41:27;;;;;;;0.60;0.60;;;;;;;5.87;68.23;99189.06;685734;28;22405;-69
2022/01/05 00:41:48;;;;;;;0.60;0.60;;;;;;;5.86;68.25;99190.06;686531;28;1637;-69
2022/01/05 00:42:09;;;;;;;0.50;0.50;;;;;;;5.86;68.18;99187.41;685774;28;22470;-69
2022/01/05 00:42:31;;;;;;;0.50;0.50;;;;;;;5.86;68.30;99187.41;686047;28;22410;-69
2022/01/05 00:42:54;;;;;;;0.60;0.60;;;;;;;5.87;68.04;99181.03;684681;28;45230;-69
2022/01/05 00:43:21;;;;;;;0.70;0.70;;;;;;;5.82;67.99;99184.25;684166;28;68028;-69
2022/01/05 00:43:44;;;;;;;0.70;0.70;;;;;;;5.83;67.98;99187.75;681912;28;137759;-69
2022/01/05 00:44:08;;;;;;;0.70;0.70;;;;;;;5.82;68.22;99184.25;675395;28;69424;-69
2022/01/05 00:44:34;;;;;;;0.55;0.55;;;;;;;5.81;68.06;99179.09;686234;28;92158;-69
2022/01/05 00:44:55;;;;;;;0.60;0.60;;;;;;;5.83;68.20;99183.25;683655;28;104819;-69
2022/01/05 00:45:16;;;;;;;0.70;0.70;;;;;;;5.83;68.19;99185.09;686911;28;22241;-69
2022/01/05 00:45:38;;;;;;;0.60;0.60;;;;;;;5.82;68.10;99192.31;686897;28;21538;-69
2022/01/05 00:46:00;;;;;;;0.60;0.60;;;;;;;5.77;68.27;99176.78;685603;28;45303;-69
2022/01/05 00:46:21;;;;;;;0.50;0.50;;;;;;;5.79;68.25;99184.63;683462;28;46374;-69
2022/01/05 00:46:42;;;;;;;0.43;0.43;;;;;;;5.74;68.03;99166.44;684191;28;21547;-69
2022/01/05 00:47:05;;;;;;;0.57;0.57;;;;;;;5.76;68.12;99182.31;683353;28;21569;-69
2022/01/05 00:47:26;;;;;;;0.60;0.60;;;;;;;5.75;68.44;99175.28;683670;28;7793;-69
2022/01/05 00:47:47;;;;;;;0.50;0.50;;;;;;;5.75;68.40;99172.59;683262;28;22200;-69
2022/01/05 00:48:08;;;;;;;0.50;0.50;;;;;;;5.76;68.42;99172.41;683140;28;21616;-69
2022/01/05 00:48:32;;;;;;;0.40;0.40;;;;;;;5.77;68.28;99175.97;683335;28;21555;-69
2022/01/05 00:48:53;;;;;;;0.50;0.50;;;;;;;5.77;68.34;99170.59;679586;28;115470;-69
2022/01/05 00:49:14;;;;;;;0.60;0.60;;;;;;;5.77;68.32;99179.47;682953;28;22551;-69
2022/01/05 00:49:36;;;;;;;0.60;0.60;;;;;;;5.76;68.32;99166.25;683377;28;22210;-69
2022/01/05 00:49:58;;;;;;;0.57;0.57;;;;;;;5.77;68.29;99175.97;682609;28;45252;-69
2022/01/05 00:50:19;;;;;;;0.50;0.50;;;;;;;5.78;68.41;99172.25;682081;28;46344;-69
2022/01/05 00:50:40;;;;;;;0.40;0.40;;;;;;;5.79;68.44;99165.88;683575;28;22405;-69
2022/01/05 00:51:02;;;;;;;0.55;0.55;;;;;;;5.77;68.28;99168.75;683180;28;23497;-69
2022/01/05 00:51:24;;;;;;;0.50;0.50;;;;;;;5.77;68.18;99167.91;682457;28;45264;-70
2022/01/05 00:51:45;;;;;;;0.57;0.57;;;;;;;5.79;68.27;99165.88;682317;28;45154;-69
2022/01/05 00:52:08;;;;;;;0.52;0.52;;;;;;;5.78;67.92;99169.56;683066;28;20836;-69
2022/01/05 00:52:29;;;;;;;0.40;0.40;;;;;;;5.78;68.31;99164.19;682222;28;46806;-69
2022/01/05 00:52:52;;;;;;;0.40;0.40;;;;;;;5.78;68.07;99169.56;683227;28;23478;-69
2022/01/05 00:53:13;;;;;;;0.60;0.60;;;;;;;5.77;68.18;99171.41;680798;28;92313;-69
2022/01/05 00:53:35;;;;;;;0.60;0.60;;;;;;;5.78;68.09;99164.19;683729;28;21298;-69
2022/01/05 00:53:56;;;;;;;0.50;0.50;;;;;;;5.77;68.05;99163.38;682305;28;22428;-69
2022/01/05 00:54:18;;;;;;;0.50;0.50;;;;;;;5.77;68.05;99167.91;682864;28;45332;-69
2022/01/05 00:54:40;;;;;;;0.40;0.40;;;;;;;5.76;68.22;99163.56;683156;28;23501;-69
2022/01/05 00:55:01;;;;;;;0.50;0.50;;;;;;;5.75;68.28;99159.22;681479;28;69293;-69
2022/01/05 00:55:23;;;;;;;0.57;0.57;;;;;;;5.76;68.20;99164.38;683329;28;22456;-69
2022/01/05 00:55:44;;;;;;;0.60;0.60;;;;;;;5.77;68.10;99162.56;682086;28;46712;-69
2022/01/05 00:56:05;;;;;;;0.50;0.50;;;;;;;5.77;68.28;99163.38;683274;28;21523;-69
2022/01/05 00:56:26;;;;;;;0.50;0.50;;;;;;;5.78;68.08;99172.25;683447;28;22399;-69
2022/01/05 00:56:48;;;;;;;0.40;0.40;;;;;;;5.77;68.11;99160.69;683191;28;23415;-69
2022/01/05 00:57:09;;;;;;;0.60;0.60;;;;;;;5.78;68.23;99166.88;682767;28;45323;-69
2022/01/05 00:57:30;;;;;;;0.60;0.60;;;;;;;5.77;68.18;99174.09;683306;28;22412;-69
2022/01/05 00:57:52;;;;;;;0.57;0.57;;;;;;;5.77;68.00;99173.28;683132;28;21525;-69
2022/01/05 00:58:14;;;;;;;0.50;0.50;;;;;;;5.77;68.08;99166.06;683740;28;881;-69
2022/01/05 00:58:35;;;;;;;0.40;0.40;;;;;;;5.78;68.31;99170.41;682641;28;45248;-69
2022/01/05 00:58:56;;;;;;;0.40;0.40;;;;;;;5.77;68.11;99171.41;682258;28;22222;-69
2022/01/05 00:59:17;;;;;;;0.60;0.60;;;;;;;5.77;68.26;99173.28;682948;28;22424;-69
2022/01/05 00:59:39;;;;;;;0.60;0.60;;;;;;;5.75;68.06;99172.59;683439;28;21557;-69
2022/01/05 01:00:00;;;;;;;0.50;0.50;;;;;;;5.76;68.23;99167.06;682522;28;44411;-69
2022/01/05 01:00:21;;;;;;;0.50;0.50;;;;;;;5.73;68.17;99164.75;683157;28;22410;-69
2022/01/05 01:00:42;;;;;;;0.40;0.40;;;;;;;5.75;68.13;99164.56;683025;28;45276;-69
2022/01/05 01:01:03;;;;;;;0.40;0.40;;;;;;;5.75;68.11;99162.75;683312;28;22401;-69
2022/01/05 01:01:25;;;;;;;0.55;0.55;;;;;;;5.75;68.17;99167.25;683896;28;953;-69
2022/01/05 01:01:46;;;;;;;0.60;0.60;;;;;;;5.75;68.24;99162.75;683373;28;46348;-69
2022/01/05 01:02:08;;;;;;;0.50;0.50;;;;;;;5.77;68.23;99159.88;683320;28;23329;-69
2022/01/05 01:02:29;;;;;;;0.45;0.45;;;;;;;5.76;68.26;99161.72;683593;28;23733;-69
2022/01/05 01:02:50;;;;;;;0.40;0.40;;;;;;;5.74;68.15;99160.25;683351;28;21548;-69
2022/01/05 01:03:12;;;;;;;0.40;0.40;;;;;;;5.76;68.16;99156.34;683590;28;22393;-70
2022/01/05 01:03:33;;;;;;;0.50;0.50;;;;;;;5.75;68.22;99154.72;682720;28;45293;-72
2022/01/05 01:03:54;;;;;;;0.40;0.40;;;;;;;5.77;68.07;99158.03;682877;28;21305;-70
2022/01/05 01:04:15;;;;;;;0.40;0.40;;;;;;;5.76;68.09;99156.34;682714;28;45260;-70
2022/01/05 01:04:37;;;;;;;0.40;0.40;;;;;;;5.74;68.26;99150.34;683624;28;21569;-70
2022/01/05 01:04:58;;;;;;;0.40;0.40;;;;;;;5.75;68.11;99157.38;682677;28;46313;-70
2022/01/05 01:05:19;;;;;;;0.40;0.40;;;;;;;5.74;67.90;99158.41;683081;28;22534;-70
2022/01/05 01:05:41;;;;;;;0.60;0.60;;;;;;;5.74;68.03;99147.69;683601;28;22397;-70
2022/01/05 01:06:03;;;;;;;0.50;0.50;;;;;;;5.74;68.06;99154.91;685394;28;21517;-70
2022/01/05 01:06:24;;;;;;;0.50;0.50;;;;;;;5.74;68.34;99150.34;683463;28;69586;-69
2022/01/05 01:06:45;;;;;;;0.40;0.40;;;;;;;5.71;68.12;99149.91;685962;28;22301;-70
2022/01/05 01:07:08;;;;;;;0.40;0.40;;;;;;;5.73;68.25;99154.03;685582;28;19365;-70
2022/01/05 01:07:30;;;;;;;0.50;0.50;;;;;;;5.72;68.28;99148.88;685216;28;44349;-70
2022/01/05 01:07:51;;;;;;;0.60;0.60;;;;;;;5.71;68.28;99144.53;684509;28;45260;-70
2022/01/05 01:08:12;;;;;;;0.50;0.50;;;;;;;5.70;68.19;99149.06;685148;28;23457;-70
2022/01/05 01:08:33;;;;;;;0.50;0.50;;;;;;;5.71;68.07;99152.59;683392;28;21309;-70
2022/01/05 01:08:55;;;;;;;0.50;0.50;;;;;;;5.70;68.09;99150.91;682540;28;23674;-70
2022/01/05 01:09:17;;;;;;;0.40;0.40;;;;;;;5.68;68.32;99156.44;682266;28;46364;-70
2022/01/05 01:09:38;;;;;;;0.50;0.50;;;;;;;5.68;68.20;99153.78;682487;28;46279;-69
2022/01/05 01:09:59;;;;;;;0.50;0.50;;;;;;;5.69;68.14;99159.94;683372;28;21547;-70
2022/01/05 01:10:21;;;;;;;0.50;0.50;;;;;;;5.67;68.15;99157.44;683099;28;22422;-69
2022/01/05 01:10:42;;;;;;;0.50;0.50;;;;;;;5.66;68.34;99158.50;682643;28;46377;-69
2022/01/05 01:11:03;;;;;;;0.40;0.40;;;;;;;5.68;68.44;99159.13;683345;28;22418;-70
2022/01/05 01:11:25;;;;;;;0.40;0.40;;;;;;;5.68;68.49;99158.31;683013;28;22409;-70
2022/01/05 01:11:46;;;;;;;0.45;0.45;;;;;;;5.68;68.41;99160.97;682935;28;44397;-69
2022/01/05 01:12:09;;;;;;;0.50;0.50;;;;;;;5.67;68.40;99162.81;683472;28;21286;-69
2022/01/05 01:12:30;;;;;;;0.50;0.50;;;;;;;5.65;68.33;99162.19;681802;28;69509;-70
2022/01/05 01:12:52;;;;;;;0.50;0.50;;;;;;;5.65;68.40;99159.50;683454;28;22200;-70
2022/01/05 01:13:16;;;;;;;0.40;0.40;;;;;;;5.65;68.47;99159.50;682193;28;43758;-69
2022/01/05 01:13:38;;;;;;;0.40;0.40;;;;;;;5.67;68.52;99162.00;680261;28;115096;-70
2022/01/05 01:13:59;;;;;;;0.50;0.50;;;;;;;5.67;68.37;99156.63;684301;28;22404;-70
2022/01/05 01:14:21;;;;;;;0.50;0.50;;;;;;;5.69;68.39;99171.50;688070;28;22438;-69
2022/01/05 01:14:42;;;;;;;0.50;0.50;;;;;;;5.68;68.49;99161.81;687761;28;45513;-69
2022/01/05 01:15:03;;;;;;;0.50;0.50;;;;;;;5.70;68.50;99166.97;688478;28;22403;-69
2022/01/05 01:15:24;;;;;;;0.50;0.50;;;;;;;5.67;68.46;99162.81;688391;28;1007;-69
2022/01/05 01:15:47;;;;;;;0.40;0.40;;;;;;;5.66;68.44;99158.50;686071;28;21266;-69
2022/01/05 01:16:08;;;;;;;0.60;0.60;;;;;;;5.68;68.53;99161.81;684395;28;67542;-70
2022/01/05 01:16:29;;;;;;;0.50;0.50;;;;;;;5.68;68.48;99156.44;686162;28;21536;-70
2022/01/05 01:16:50;;;;;;;0.50;0.50;;;;;;;5.68;68.58;99158.31;685849;28;22426;-69
2022/01/05 01:17:11;;;;;;;0.50;0.50;;;;;;;5.70;68.44;99158.94;685739;28;21548;-69
2022/01/05 01:17:36;;;;;;;0.40;0.40;;;;;;;5.67;68.13;99152.09;687080;28;22422;-70
2022/01/05 01:17:58;;;;;;;0.43;0.43;;;;;;;5.70;68.52;99161.63;683333;28;109984;-70
2022/01/05 01:18:20;;;;;;;0.60;0.60;;;;;;;5.69;68.20;99151.91;685540;28;22375;-69
2022/01/05 01:18:41;;;;;;;0.50;0.50;;;;;;;5.69;68.29;99147.41;685646;28;44372;-70
2022/01/05 01:19:03;;;;;;;0.50;0.50;;;;;;;5.68;68.34;99153.78;684617;28;22165;-69
2022/01/05 01:19:24;;;;;;;0.40;0.40;;;;;;;5.68;68.48;99153.78;684833;28;44008;-69
2022/01/05 01:19:45;;;;;;;0.40;0.40;;;;;;;5.68;68.52;99148.41;685860;28;21549;-69
2022/01/05 01:20:07;;;;;;;0.40;0.40;;;;;;;5.63;68.29;99145.47;685877;28;22397;-69
2022/01/05 01:20:29;;;;;;;0.55;0.55;;;;;;;5.64;68.42;99155.16;685073;28;44526;-70
2022/01/05 01:20:50;;;;;;;0.50;0.50;;;;;;;5.64;68.56;99157.81;685097;28;45224;-69
2022/01/05 01:21:11;;;;;;;0.50;0.50;;;;;;;5.64;68.51;99157.81;685976;28;22262;-69
2022/01/05 01:21:33;;;;;;;0.43;0.43;;;;;;;5.62;68.55;99157.19;686162;28;22403;-70
2022/01/05 01:21:55;;;;;;;0.40;0.40;;;;;;;5.63;68.52;99160.69;685225;28;44202;-70
2022/01/05 01:22:18;;;;;;;0.50;0.50;;;;;;;5.61;68.55;99160.88;685240;28;46401;-69
2022/01/05 01:22:39;;;;;;;0.50;0.50;;;;;;;5.62;68.47;99164.41;684280;28;69495;-69
2022/01/05 01:23:00;;;;;;;0.50;0.50;;;;;;;5.62;68.63;99164.41;685951;28;23483;-70
2022/01/05 01:23:23;;;;;;;0.40;0.40;;;;;;;5.60;68.58;99167.25;685848;28;22543;-70
2022/01/05 01:23:54;;;;;;;0.40;0.40;;;;;;;5.59;68.64;99166.44;684313;28;68373;-69
2022/01/05 01:24:15;;;;;;;0.40;0.40;;;;;;;5.60;68.54;99168.06;680298;28;156315;-69
2022/01/05 01:24:37;;;;;;;0.50;0.50;;;;;;;5.59;68.81;99170.94;686749;28;22417;-70
2022/01/05 01:24:58;;;;;;;0.50;0.50;;;;;;;5.60;68.54;99167.25;685956;28;44378;-69
2022/01/05 01:25:19;;;;;;;0.40;0.40;;;;;;;5.60;68.60;99173.44;686736;28;23438;-69
2022/01/05 01:25:40;;;;;;;0.40;0.40;;;;;;;5.58;68.72;99170.13;686820;28;23478;-69
2022/01/05 01:26:02;;;;;;;0.38;0.38;;;;;;;5.59;68.54;99169.13;686949;28;21582;-69
2022/01/05 01:26:25;;;;;;;0.40;0.40;;;;;;;5.59;68.64;99174.47;685371;28;46313;-69
2022/01/05 01:26:46;;;;;;;0.50;0.50;;;;;;;5.60;68.83;99165.41;684149;28;67515;-69
2022/01/05 01:27:07;;;;;;;0.50;0.50;;;;;;;5.61;68.60;99174.25;685800;28;22415;-69
2022/01/05 01:27:29;;;;;;;0.40;0.40;;;;;;;5.61;68.88;99166.22;686101;28;23463;-69
2022/01/05 01:27:50;;;;;;;0.40;0.40;;;;;;;5.60;68.78;99169.94;684680;28;45268;-69
2022/01/05 01:28:11;;;;;;;0.40;0.40;;;;;;;5.58;68.70;99162.09;685649;28;22194;-69
2022/01/05 01:28:42;;;;;;;0.52;0.52;;;;;;;5.59;68.83;99169.13;688094;28;98818;-70
2022/01/05 01:29:04;;;;;;;0.50;0.50;;;;;;;5.59;68.88;99165.59;689751;28;22408;-70
2022/01/05 01:29:25;;;;;;;0.50;0.50;;;;;;;5.58;69.00;99163.94;690427;28;44388;-70
2022/01/05 01:29:46;;;;;;;0.57;0.57;;;;;;;5.56;68.79;99160.59;691043;28;22395;-70
2022/01/05 01:30:08;;;;;;;0.60;0.60;;;;;;;5.58;68.87;99164.75;690834;28;23855;-70
2022/01/05 01:30:32;;;;;;;0.63;0.63;;;;;;;5.59;68.82;99168.25;686839;28;44899;-70
2022/01/05 01:30:53;;;;;;;0.70;0.70;;;;;;;5.58;68.96;99163.94;683621;28;92381;-70
2022/01/05 01:31:14;;;;;;;0.70;0.70;;;;;;;5.57;68.82;99163.09;684778;28;45255;-69
2022/01/05 01:31:36;;;;;;;0.60;0.60;;;;;;;5.59;68.88;99163.75;686159;28;22393;-69
2022/01/05 01:31:57;;;;;;;0.70;0.70;;;;;;;5.58;68.83;99159.41;684777;28;45242;-69
2022/01/05 01:32:18;;;;;;;0.60;0.60;;;;;;;5.58;68.92;99153.22;685849;28;21554;-69
2022/01/05 01:32:41;;;;;;;0.70;0.70;;;;;;;5.56;68.72;99149.88;686067;28;22420;-69
2022/01/05 01:33:03;;;;;;;0.90;0.90;;;;;;;5.57;68.77;99162.28;684813;28;45254;-70
2022/01/05 01:33:24;;;;;;;0.88;0.88;;;;;;;5.56;68.92;99156.09;689171;28;68833;-69
2022/01/05 01:33:46;;;;;;;0.75;0.75;;;;;;;5.56;68.93;99158.78;690874;28;21541;-70
2022/01/05 01:34:07;;;;;;;0.60;0.60;;;;;;;5.57;69.05;99159.59;690080;28;24435;-69
2022/01/05 01:34:29;;;;;;;0.50;0.50;;;;;;;5.59;68.96;99161.06;691317;28;23420;-70
2022/01/05 01:34:50;;;;;;;0.75;0.75;;;;;;;5.60;69.05;99161.91;690541;28;44146;-69
2022/01/05 01:35:11;;;;;;;0.80;0.80;;;;;;;5.61;68.99;99168.91;690038;28;21598;-70
2022/01/05 01:35:33;;;;;;;0.80;0.80;;;;;;;5.62;68.95;99172.44;685442;28;46082;-70
2022/01/05 01:35:54;;;;;;;0.60;0.60;;;;;;;5.60;68.83;99164.56;685298;28;46383;-70
2022/01/05 01:36:15;;;;;;;0.60;0.60;;;;;;;5.60;68.97;99157.38;685498;28;21358;-69
2022/01/05 01:36:36;;;;;;;0.70;0.70;;;;;;;5.63;69.10;99158.84;686178;28;22408;-70
2022/01/05 01:36:58;;;;;;;0.70;0.70;;;;;;;5.62;68.88;99159.03;685788;28;23403;-69
2022/01/05 01:37:21;;;;;;;0.70;0.70;;;;;;;5.64;69.03;99168.53;684922;28;45280;-69
2022/01/05 01:37:42;;;;;;;0.70;0.70;;;;;;;5.65;68.71;99156.81;684405;28;67516;-69
2022/01/05 01:38:03;;;;;;;0.80;0.80;;;;;;;5.64;68.75;99160.50;685809;28;22410;-69
2022/01/05 01:38:25;;;;;;;0.70;0.70;;;;;;;5.66;68.70;99160.31;685618;28;23411;-70
2022/01/05 01:38:46;;;;;;;0.57;0.57;;;;;;;5.67;69.00;99157.44;684721;28;46316;-69
2022/01/05 01:39:07;;;;;;;0.77;0.77;;;;;;;5.67;68.81;99159.31;684635;28;21550;-69
2022/01/05 01:39:28;;;;;;;0.70;0.70;;;;;;;5.63;68.67;99153.50;686097;28;22424;-69
2022/01/05 01:39:50;;;;;;;0.70;0.70;;;;;;;5.64;68.79;99151.66;685670;28;23448;-69
2022/01/05 01:40:11;;;;;;;0.70;0.70;;;;;;;5.62;68.78;99153.69;684599;28;45079;-69
2022/01/05 01:40:32;;;;;;;0.60;0.60;;;;;;;5.62;68.72;99145.66;685926;28;23490;-69
2022/01/05 01:40:53;;;;;;;0.55;0.55;;;;;;;5.63;68.78;99150.81;686042;28;22406;-69
2022/01/05 01:41:16;;;;;;;0.82;0.82;;;;;;;5.64;68.87;99151.66;685745;28;22420;-69
2022/01/05 01:41:37;;;;;;;0.80;0.80;;;;;;;5.63;69.07;99156.19;685457;28;44414;-69
2022/01/05 01:41:58;;;;;;;0.70;0.70;;;;;;;5.59;69.03;99153.03;685942;28;22414;-70
2022/01/05 01:42:19;;;;;;;1.08;1.08;;;;;;;5.59;69.08;99149.50;685545;28;23482;-69
2022/01/05 01:42:41;;;;;;;1.20;1.20;;;;;;;5.62;69.00;99151.00;685163;28;22416;-69
2022/01/05 01:43:03;;;;;;;1.23;1.23;;;;;;;5.63;68.77;99152.66;685107;28;46354;-70
2022/01/05 01:43:24;;;;;;;1.30;1.30;;;;;;;5.63;68.77;99155.31;684733;28;45212;-69
2022/01/05 01:43:45;;;;;;;1.10;1.10;;;;;;;5.62;68.73;99153.69;689906;28;45920;-70
2022/01/05 01:44:07;;;;;;;1.30;1.30;;;;;;;5.63;68.95;99155.31;690320;28;22198;-70
2022/01/05 01:44:28;;;;;;;1.30;1.30;;;;;;;5.64;68.96;99157.00;690377;28;46270;-69
2022/01/05 01:44:49;;;;;;;1.30;1.30;;;;;;;5.63;68.88;99149.97;690907;28;22357;-69
2022/01/05 01:45:10;;;;;;;1.38;1.38;;;;;;;5.64;68.68;99155.16;691043;28;21534;-69
2022/01/05 01:45:34;;;;;;;1.65;1.55;;;;;;;5.65;68.94;99158.66;689834;28;23454;-69
2022/01/05 01:45:56;;;;;;;1.20;1.20;;;;;;;5.64;68.91;99157.81;684503;28;67468;-69